Time;durP1;ratioP1;P1;durP2;ratioP2;P2;SDS_P1;SDS_P2;PMS_P1;PMS_P2;Temp;Humidity;BMP_temperature;BMP_pressure;BME280_temperature;BME280_humidity;BME280_pressure;Samples;Min_cycle;Max_cycle;Signal;HPM_P1;HPM_P2
2022/09/02 00:00:52;;;;;;;13.98;11.38;;;;;;;21.49;100.00;97907.34;5073549;28;20164;-58
2022/09/02 00:03:18;;;;;;;13.68;11.20;;;;;;;21.50;100.00;97902.94;5073433;28;20278;-58
2022/09/02 00:05:44;;;;;;;13.32;11.50;;;;;;;21.41;100.00;97914.53;5073402;28;20204;-58
2022/09/02 00:08:10;;;;;;;12.43;11.13;;;;;;;21.39;100.00;97898.13;5073421;28;20212;-58
2022/09/02 00:10:38;;;;;;;13.02;10.90;;;;;;;21.45;100.00;97907.94;5073637;28;20180;-58
2022/09/02 00:13:06;;;;;;;16.25;11.23;;;;;;;21.43;100.00;97910.72;5073582;28;20185;-58
2022/09/02 00:15:32;;;;;;;15.88;11.50;;;;;;;21.37;100.00;97903.56;5073255;28;20177;-58
2022/09/02 00:17:59;;;;;;;17.60;11.10;;;;;;;21.56;100.00;97905.59;5073109;28;20185;-58
2022/09/02 00:20:25;;;;;;;14.23;10.75;;;;;;;21.65;100.00;97911.59;5073430;28;20177;-58
2022/09/02 00:22:51;;;;;;;16.80;10.65;;;;;;;21.69;100.00;97903.16;5073336;28;20660;-57
2022/09/02 00:25:16;;;;;;;13.38;11.07;;;;;;;21.63;100.00;97909.13;5072830;28;20175;-58
2022/09/02 00:27:41;;;;;;;13.05;10.27;;;;;;;21.69;100.00;97908.41;5073286;28;20168;-57
2022/09/02 00:30:08;;;;;;;13.20;10.20;;;;;;;21.78;100.00;97911.75;5073209;28;20255;-58
2022/09/02 00:32:33;;;;;;;16.10;10.75;;;;;;;21.73;100.00;97912.31;5072882;28;20179;-57
2022/09/02 00:34:58;;;;;;;12.40;10.95;;;;;;;21.67;100.00;97912.22;5072891;28;20168;-58
2022/09/02 00:37:25;;;;;;;13.27;11.07;;;;;;;21.69;100.00;97912.88;5073110;28;20180;-57
2022/09/02 00:39:52;;;;;;;23.15;11.25;;;;;;;21.67;100.00;97914.88;5072734;28;20570;-58
2022/09/02 00:42:18;;;;;;;13.45;10.75;;;;;;;21.59;100.00;97907.06;5072978;28;20615;-58
2022/09/02 00:44:44;;;;;;;11.48;10.35;;;;;;;21.64;100.00;97912.59;5072848;28;20403;-58
2022/09/02 00:47:10;;;;;;;11.55;10.50;;;;;;;21.64;100.00;97899.41;5073180;28;20165;-58
2022/09/02 00:49:39;;;;;;;11.48;10.38;;;;;;;21.76;100.00;97908.50;5072532;28;20184;-58
2022/09/02 00:52:16;;;;;;;12.70;11.00;;;;;;;21.76;100.00;97909.31;5072350;28;20200;-58
2022/09/02 00:55:16;;;;;;;15.70;10.52;;;;;;;21.75;100.00;97904.22;5073116;28;20160;-58
2022/09/02 00:57:49;;;;;;;12.18;10.27;;;;;;;21.84;100.00;97911.00;5067100;28;20180;-58
2022/09/02 01:00:19;;;;;;;12.77;10.32;;;;;;;21.78;100.00;97909.13;5072476;28;20157;-59
2022/09/02 01:02:52;;;;;;;16.95;10.85;;;;;;;21.70;100.00;97903.97;5072685;28;20160;-58
2022/09/02 01:05:20;;;;;;;13.20;10.30;;;;;;;21.66;100.00;97907.94;5072629;28;20161;-58
2022/09/02 01:07:45;;;;;;;11.50;10.35;;;;;;;21.57;100.00;97909.88;5072299;28;20180;-58
2022/09/02 01:10:20;;;;;;;11.25;10.10;;;;;;;21.65;100.00;97911.59;5072307;28;20188;-58
2022/09/02 01:12:46;;;;;;;12.80;11.27;;;;;;;21.48;100.00;97894.38;5073084;28;20183;-58
2022/09/02 01:15:12;;;;;;;14.00;10.52;;;;;;;21.49;100.00;97901.25;5072490;28;20637;-58
2022/09/02 01:17:41;;;;;;;12.43;10.82;;;;;;;21.54;100.00;97904.16;5072155;28;20180;-58
2022/09/02 01:20:10;;;;;;;15.77;11.23;;;;;;;21.54;100.00;97906.78;5072173;28;20259;-58
2022/09/02 01:22:37;;;;;;;15.98;11.43;;;;;;;21.45;100.00;97908.72;5072059;28;20176;-59
2022/09/02 01:25:10;;;;;;;10.70;9.57;;;;;;;21.49;100.00;97901.25;5072312;28;20196;-58
2022/09/02 01:27:35;;;;;;;15.02;10.50;;;;;;;21.34;100.00;97889.97;5054120;28;20172;-58
2022/09/02 01:30:01;;;;;;;15.73;10.63;;;;;;;21.48;100.00;97899.63;5072300;28;20176;-58
2022/09/02 01:32:29;;;;;;;15.13;10.85;;;;;;;21.46;100.00;97897.22;5072004;28;20261;-59
2022/09/02 01:34:54;;;;;;;14.60;10.70;;;;;;;21.46;100.00;97896.38;5072263;28;20180;-59
2022/09/02 01:37:21;;;;;;;11.65;10.50;;;;;;;21.41;100.00;97889.06;5070988;28;20191;-58
2022/09/02 01:39:47;;;;;;;12.50;10.20;;;;;;;21.42;100.00;97892.47;5071923;28;20657;-58
2022/09/02 01:42:12;;;;;;;13.93;10.65;;;;;;;21.33;100.00;97886.50;5071840;28;20237;-59
2022/09/02 01:44:42;;;;;;;11.85;10.40;;;;;;;21.45;100.00;97892.94;5071815;28;20197;-59
2022/09/02 01:47:20;;;;;;;14.27;10.57;;;;;;;21.45;100.00;97894.75;5071848;28;20160;-59
2022/09/02 01:49:47;;;;;;;11.73;10.38;;;;;;;21.40;100.00;97884.75;5071838;28;20179;-58
2022/09/02 01:52:14;;;;;;;13.35;11.50;;;;;;;21.36;100.00;97895.84;5071763;28;20228;-59
2022/09/02 01:54:39;;;;;;;11.43;10.23;;;;;;;21.37;100.00;97881.69;5071813;28;20175;-59
2022/09/02 01:57:05;;;;;;;12.60;11.30;;;;;;;21.24;100.00;97890.25;5072072;28;20169;-59
2022/09/02 01:59:31;;;;;;;12.38;10.23;;;;;;;21.29;100.00;97890.53;5071750;28;20179;-59
2022/09/02 02:01:56;;;;;;;11.93;10.73;;;;;;;21.26;100.00;97879.53;5071724;28;20176;-59
2022/09/02 02:04:23;;;;;;;13.52;10.55;;;;;;;21.41;100.00;97889.06;5071883;28;20188;-58
2022/09/02 02:06:50;;;;;;;20.13;11.00;;;;;;;21.32;100.00;97890.16;5071629;28;20665;-59
2022/09/02 02:09:17;;;;;;;12.90;10.85;;;;;;;21.25;100.00;97893.69;5071666;28;20183;-59
2022/09/02 02:11:43;;;;;;;12.85;11.13;;;;;;;21.24;100.00;97895.53;5071912;28;20191;-58
2022/09/02 02:14:10;;;;;;;13.93;10.95;;;;;;;21.23;100.00;97882.53;5071634;28;20217;-58
2022/09/02 02:16:35;;;;;;;11.32;9.85;;;;;;;21.20;100.00;97890.78;5071804;28;20180;-58
2022/09/02 02:19:01;;;;;;;12.90;10.77;;;;;;;21.17;100.00;97884.13;5071566;28;20173;-59
2022/09/02 02:21:27;;;;;;;11.98;10.00;;;;;;;21.22;100.00;97894.06;5071567;28;20250;-59
2022/09/02 02:23:52;;;;;;;16.27;10.82;;;;;;;21.13;100.00;97884.63;5071467;28;20196;-58
2022/09/02 02:26:18;;;;;;;13.52;10.73;;;;;;;21.20;100.00;97890.78;5071490;28;20171;-58
2022/09/02 02:28:43;;;;;;;13.50;9.98;;;;;;;21.32;100.00;97902.50;5071422;28;20180;-58
2022/09/02 02:31:09;;;;;;;13.90;10.70;;;;;;;21.22;100.00;97881.72;5071446;28;20183;-59
2022/09/02 02:33:35;;;;;;;17.05;10.57;;;;;;;21.26;100.00;97890.88;5071680;28;20294;-58
2022/09/02 02:36:03;;;;;;;19.40;11.27;;;;;;;21.28;100.00;97893.34;5071700;28;20252;-59
2022/09/02 02:38:29;;;;;;;13.27;11.45;;;;;;;21.28;100.00;97883.59;5071326;28;20562;-59
2022/09/02 02:40:56;;;;;;;14.77;11.02;;;;;;;21.22;100.00;97884.34;5071491;28;20248;-58
2022/09/02 02:43:25;;;;;;;12.93;10.45;;;;;;;21.24;100.00;97889.44;5071266;28;20554;-59
2022/09/02 02:45:53;;;;;;;13.10;10.13;;;;;;;21.31;100.00;97888.53;5071589;28;20177;-59
2022/09/02 02:48:19;;;;;;;12.35;10.38;;;;;;;21.37;100.00;97876.44;5073087;28;20204;-58
2022/09/02 02:50:44;;;;;;;17.85;10.02;;;;;;;21.26;100.00;97879.53;5074903;28;20605;-59
2022/09/02 02:53:11;;;;;;;13.50;10.90;;;;;;;21.24;100.00;97876.28;5074506;28;20238;-59
2022/09/02 02:55:37;;;;;;;17.58;10.48;;;;;;;21.25;100.00;97877.91;5075100;28;20172;-58
2022/09/02 02:58:02;;;;;;;10.90;9.85;;;;;;;21.25;100.00;97877.91;5074781;28;20179;-59
2022/09/02 03:00:30;;;;;;;14.45;9.98;;;;;;;21.09;100.00;97880.75;5075000;28;20173;-59
2022/09/02 03:02:59;;;;;;;11.60;10.40;;;;;;;21.18;100.00;97882.28;5075157;28;20169;-59
2022/09/02 03:05:24;;;;;;;14.13;10.70;;;;;;;21.12;100.00;97869.84;5074711;28;20180;-59
2022/09/02 03:07:50;;;;;;;15.80;9.55;;;;;;;21.01;100.00;97870.31;5074650;28;20255;-58
2022/09/02 03:10:19;;;;;;;13.65;10.63;;;;;;;20.97;100.00;97869.88;5074594;28;20165;-59
2022/09/02 03:12:46;;;;;;;15.57;10.52;;;;;;;21.02;100.00;97882.47;5074552;28;20177;-58
2022/09/02 03:15:15;;;;;;;11.40;10.23;;;;;;;21.01;100.00;97881.69;5074741;28;20176;-58
2022/09/02 03:17:42;;;;;;;12.63;10.38;;;;;;;20.98;100.00;97878.59;5074655;28;20172;-58
2022/09/02 03:20:07;;;;;;;14.70;10.63;;;;;;;20.99;100.00;97877.59;5074383;28;20249;-58
2022/09/02 03:22:36;;;;;;;12.20;9.90;;;;;;;20.98;100.00;97875.97;5074383;28;20653;-59
2022/09/02 03:25:02;;;;;;;13.60;10.18;;;;;;;20.97;100.00;97866.44;5074486;28;20235;-58
2022/09/02 03:27:28;;;;;;;11.77;9.98;;;;;;;21.05;100.00;97876.84;5074258;28;20176;-59
2022/09/02 03:29:53;;;;;;;11.18;9.82;;;;;;;21.07;100.00;97874.84;5074170;28;20557;-59
2022/09/02 03:32:18;;;;;;;11.02;9.63;;;;;;;21.17;100.00;97886.75;5074164;28;20565;-58
2022/09/02 03:34:44;;;;;;;13.20;10.13;;;;;;;21.18;100.00;97871.75;5074350;28;20259;-59
2022/09/02 03:37:09;;;;;;;12.15;10.15;;;;;;;20.85;100.00;97823.97;5074682;28;20254;-59
2022/09/02 03:39:37;;;;;;;10.95;9.45;;;;;;;21.18;100.00;97866.50;5074305;28;20234;-59
2022/09/02 03:42:02;;;;;;;11.23;10.13;;;;;;;21.24;100.00;97881.53;5074026;28;20176;-59
2022/09/02 03:44:27;;;;;;;15.95;10.13;;;;;;;21.18;100.00;97877.00;5074122;28;20219;-59
2022/09/02 03:46:53;;;;;;;19.58;10.90;;;;;;;21.14;100.00;97870.47;5074143;28;20278;-58
2022/09/02 03:49:18;;;;;;;11.65;9.93;;;;;;;21.15;100.00;97878.19;5073796;28;20178;-58
2022/09/02 03:51:44;;;;;;;14.02;10.52;;;;;;;21.05;100.00;97884.75;5073596;28;20222;-58
2022/09/02 03:54:10;;;;;;;11.07;10.00;;;;;;;21.08;100.00;97882.56;5073690;28;20592;-59
2022/09/02 03:56:36;;;;;;;15.07;10.60;;;;;;;21.10;100.00;97882.38;5073670;28;20188;-59
2022/09/02 03:59:02;;;;;;;11.70;10.57;;;;;;;21.03;100.00;97874.41;5072997;28;20646;-58
2022/09/02 04:01:28;;;;;;;11.13;9.88;;;;;;;21.05;100.00;97880.28;5073309;28;20179;-58
2022/09/02 04:03:54;;;;;;;11.70;10.50;;;;;;;21.15;100.00;97887.91;5073488;28;20212;-59
2022/09/02 04:06:22;;;;;;;12.40;10.68;;;;;;;21.20;100.00;97898.69;5055555;28;20172;-58
2022/09/02 04:08:48;;;;;;;12.63;10.77;;;;;;;21.07;100.00;97883.56;5073450;28;20200;-58
2022/09/02 04:11:18;;;;;;;15.25;10.70;;;;;;;21.04;100.00;97901.53;5073363;28;20677;-59
2022/09/02 04:13:45;;;;;;;14.00;10.85;;;;;;;21.07;100.00;97888.00;5073570;28;20177;-59
2022/09/02 04:16:17;;;;;;;18.40;10.77;;;;;;;21.14;100.00;97891.53;5073592;28;20180;-59
2022/09/02 04:18:43;;;;;;;18.63;10.07;;;;;;;21.16;100.00;97890.34;5073538;28;20173;-58
2022/09/02 04:21:09;;;;;;;13.45;9.68;;;;;;;21.20;100.00;97901.31;5073464;28;20610;-58
2022/09/02 04:23:35;;;;;;;12.75;10.02;;;;;;;21.27;100.00;97897.78;5073058;28;20212;-59
2022/09/02 04:26:11;;;;;;;19.73;10.70;;;;;;;21.35;100.00;97902.13;5073350;28;20262;-58
2022/09/02 04:28:37;;;;;;;15.45;10.63;;;;;;;21.34;100.00;97913.66;5072944;28;20653;-58
2022/09/02 04:31:05;;;;;;;12.23;10.55;;;;;;;21.26;100.00;97906.69;5073229;28;20259;-58
2022/09/02 04:33:30;;;;;;;12.40;10.30;;;;;;;21.13;100.00;97892.53;5073217;28;20271;-58
2022/09/02 04:35:55;;;;;;;13.75;10.13;;;;;;;21.11;100.00;97915.59;5072891;28;20717;-59
2022/09/02 04:38:21;;;;;;;11.38;10.13;;;;;;;21.06;100.00;97915.31;5072854;28;20179;-58
2022/09/02 04:40:46;;;;;;;15.60;10.00;;;;;;;21.12;100.00;97919.84;5072759;28;20165;-58
2022/09/02 04:43:13;;;;;;;17.88;10.07;;;;;;;21.16;100.00;97926.38;5072696;28;20703;-58
2022/09/02 04:45:43;;;;;;;15.27;10.40;;;;;;;21.15;100.00;97924.75;5072716;28;20183;-59
2022/09/02 04:48:10;;;;;;;11.65;10.40;;;;;;;21.30;100.00;97920.28;5072684;28;20280;-58
2022/09/02 04:50:38;;;;;;;14.30;11.32;;;;;;;21.41;100.00;97925.06;5072621;28;20182;-58
2022/09/02 04:53:04;;;;;;;12.77;10.27;;;;;;;21.44;100.00;97920.25;5072322;28;20717;-59
2022/09/02 04:55:31;;;;;;;12.55;10.82;;;;;;;21.40;100.00;97918.19;5072520;28;20183;-59
2022/09/02 04:57:57;;;;;;;16.08;10.18;;;;;;;21.54;100.00;97926.06;5072799;28;20264;-59
2022/09/02 05:00:23;;;;;;;20.90;10.85;;;;;;;21.55;100.00;97921.59;5072485;28;20198;-59
2022/09/02 05:02:49;;;;;;;16.23;10.68;;;;;;;21.68;100.00;97922.59;5072687;28;20770;-59
2022/09/02 05:05:15;;;;;;;11.02;9.75;;;;;;;21.70;100.00;97922.41;5072454;28;20227;-59
2022/09/02 05:07:41;;;;;;;12.13;9.60;;;;;;;21.68;100.00;97927.84;5072544;28;20184;-59
2022/09/02 05:10:07;;;;;;;11.70;10.20;;;;;;;21.73;100.00;97940.50;5072363;28;20262;-59
2022/09/02 05:12:34;;;;;;;13.95;10.77;;;;;;;21.88;100.00;97943.88;5072574;28;20226;-59
2022/09/02 05:15:00;;;;;;;12.05;10.93;;;;;;;21.92;100.00;97935.41;5072191;28;20717;-59
2022/09/02 05:17:27;;;;;;;11.23;9.88;;;;;;;21.95;100.00;97940.31;5072161;28;20165;-59
2022/09/02 05:19:52;;;;;;;14.57;10.05;;;;;;;21.96;100.00;97928.75;5072115;28;20668;-59
2022/09/02 05:22:18;;;;;;;11.20;10.25;;;;;;;21.96;100.00;97925.34;5072085;28;20184;-59
2022/09/02 05:24:44;;;;;;;11.75;9.93;;;;;;;22.08;100.00;97927.25;5072302;28;20200;-59
2022/09/02 05:27:11;;;;;;;12.68;9.68;;;;;;;21.94;100.00;97900.97;5072408;28;20552;-59
2022/09/02 05:29:37;;;;;;;17.35;10.68;;;;;;;22.16;100.00;97926.31;5071983;28;20187;-59
2022/09/02 05:32:03;;;;;;;12.90;10.05;;;;;;;22.22;100.00;97925.56;5072100;28;20177;-59
2022/09/02 05:34:29;;;;;;;17.95;10.27;;;;;;;22.28;100.00;97920.38;5072273;28;20520;-59
2022/09/02 05:37:16;;;;;;;12.13;10.10;;;;;;;22.40;100.00;97924.13;5298511;22;20230;-56
2022/09/02 05:39:42;;;;;;;14.02;11.20;;;;;;;22.49;100.00;97927.47;5056392;28;20224;-58
2022/09/02 05:42:07;;;;;;;15.10;11.30;;;;;;;22.61;100.00;97921.44;5052220;28;20185;-58
2022/09/02 05:44:34;;;;;;;13.05;10.50;;;;;;;22.61;100.00;97924.09;5051326;28;20199;-59
2022/09/02 05:47:00;;;;;;;16.25;9.57;;;;;;;22.68;100.00;97921.50;5050805;28;20176;-59
2022/09/02 05:49:25;;;;;;;12.48;10.70;;;;;;;22.70;100.00;97924.75;5052152;28;20161;-59
2022/09/02 05:51:57;;;;;;;13.48;9.93;;;;;;;22.78;100.00;97924.63;5051825;28;20670;-59
2022/09/02 05:54:28;;;;;;;12.85;11.10;;;;;;;22.87;100.00;97920.81;5051715;28;20239;-60
2022/09/02 05:56:57;;;;;;;11.68;9.88;;;;;;;22.89;100.00;97916.97;5050815;28;20180;-59
2022/09/02 05:59:25;;;;;;;13.32;10.65;;;;;;;22.81;100.00;97916.31;5051611;28;20674;-59
2022/09/02 06:01:52;;;;;;;13.32;10.25;;;;;;;22.99;100.00;97929.81;5051984;28;20177;-59
2022/09/02 06:04:19;;;;;;;12.13;10.52;;;;;;;23.11;100.00;97922.97;5051260;28;20201;-59
2022/09/02 06:06:45;;;;;;;12.63;9.73;;;;;;;23.14;99.97;97927.88;5051698;28;20181;-58
2022/09/02 06:09:14;;;;;;;14.32;10.10;;;;;;;23.18;100.00;97923.84;5051921;28;20184;-59
2022/09/02 06:11:44;;;;;;;10.75;8.82;;;;;;;23.23;99.02;97919.63;5051643;28;20169;-59
2022/09/02 06:14:12;;;;;;;13.82;9.35;;;;;;;23.31;98.78;97929.22;5051533;28;20165;-59
2022/09/02 06:16:39;;;;;;;14.27;9.93;;;;;;;23.33;98.16;97925.38;5051577;28;20624;-59
2022/09/02 06:19:05;;;;;;;11.52;10.40;;;;;;;23.26;99.74;97931.63;5051590;28;20200;-59
2022/09/02 06:21:31;;;;;;;11.50;9.07;;;;;;;23.26;99.38;97932.44;5051436;28;20177;-59
2022/09/02 06:23:56;;;;;;;11.90;9.90;;;;;;;23.33;98.53;97932.47;5054394;28;20548;-59
2022/09/02 06:26:22;;;;;;;19.80;9.32;;;;;;;23.41;97.47;97930.47;5055469;28;20172;-59
2022/09/02 06:28:47;;;;;;;15.27;9.65;;;;;;;23.37;97.99;97933.72;5055410;28;20172;-59
2022/09/02 06:31:17;;;;;;;10.60;9.68;;;;;;;23.48;97.48;97935.78;5054239;28;20165;-59
2022/09/02 06:33:44;;;;;;;13.60;10.63;;;;;;;23.34;98.41;97929.63;5055515;28;20196;-59
2022/09/02 06:36:13;;;;;;;10.90;9.82;;;;;;;23.33;99.13;97927.19;5054919;28;20230;-59
2022/09/02 06:38:42;;;;;;;14.07;10.02;;;;;;;23.32;99.09;97920.28;5055102;28;20224;-59
2022/09/02 06:41:10;;;;;;;16.75;10.52;;;;;;;23.33;100.00;97911.34;5055116;28;20657;-59
2022/09/02 06:43:36;;;;;;;16.35;11.13;;;;;;;23.55;100.00;97926.06;5054978;28;20690;-59
2022/09/02 06:46:01;;;;;;;13.27;10.20;;;;;;;23.62;100.00;97927.72;5055005;28;20180;-58
2022/09/02 06:48:27;;;;;;;13.77;10.93;;;;;;;23.67;100.00;97920.81;5054890;28;20263;-58
2022/09/02 06:50:54;;;;;;;14.35;10.63;;;;;;;23.72;100.00;97924.69;5055182;28;20204;-59
2022/09/02 06:53:19;;;;;;;11.73;10.43;;;;;;;23.81;100.00;97925.13;5055154;28;20177;-59
2022/09/02 06:55:45;;;;;;;17.55;10.90;;;;;;;23.92;100.00;97935.13;5054845;28;20169;-59
2022/09/02 06:58:12;;;;;;;12.88;10.40;;;;;;;24.11;100.00;97933.56;5055113;28;20668;-59
2022/09/02 07:00:40;;;;;;;17.52;10.63;;;;;;;24.25;100.00;97949.22;5054781;28;20177;-59
2022/09/02 07:06:02;;;;;;;12.70;10.20;;;;;;;24.56;100.00;97943.34;5055006;28;20219;-59
2022/09/02 07:08:27;;;;;;;15.98;11.27;;;;;;;24.64;100.00;97949.28;5054832;28;20184;-60
2022/09/02 07:10:53;;;;;;;12.77;10.95;;;;;;;24.75;100.00;97951.31;5054630;28;20537;-58
2022/09/02 07:13:19;;;;;;;16.27;11.35;;;;;;;24.82;100.00;97949.47;5055313;28;20185;-58
2022/09/02 07:15:44;;;;;;;11.95;9.85;;;;;;;24.93;100.00;97951.50;5054503;28;20173;-58
2022/09/02 07:18:09;;;;;;;21.60;10.77;;;;;;;24.99;100.00;97945.38;5055036;28;20177;-59
2022/09/02 07:20:35;;;;;;;13.95;10.85;;;;;;;25.03;100.00;97943.94;5054351;28;20168;-58
2022/09/02 07:23:01;;;;;;;12.38;10.48;;;;;;;25.09;100.00;97952.88;5054377;28;20181;-58
2022/09/02 07:25:26;;;;;;;14.70;11.07;;;;;;;25.08;100.00;97953.91;5054530;28;20205;-58
2022/09/02 07:27:52;;;;;;;18.13;11.07;;;;;;;25.12;100.00;97955.94;5054256;28;20566;-58
2022/09/02 07:30:18;;;;;;;17.85;11.43;;;;;;;25.14;100.00;97953.88;5054203;28;20183;-59
2022/09/02 07:32:43;;;;;;;16.73;11.15;;;;;;;24.99;100.00;97955.97;5054083;28;20649;-60
2022/09/02 07:35:09;;;;;;;17.08;11.32;;;;;;;24.93;100.00;97955.97;5052762;28;20181;-60
2022/09/02 07:37:34;;;;;;;14.50;11.30;;;;;;;24.94;100.00;97953.13;5054205;28;20189;-60
2022/09/02 07:40:05;;;;;;;17.63;10.95;;;;;;;25.04;100.00;97960.63;5054050;28;20243;-60
2022/09/02 07:42:30;;;;;;;15.02;10.98;;;;;;;24.80;100.00;97946.22;5054178;28;20181;-60
2022/09/02 07:44:56;;;;;;;17.77;11.43;;;;;;;24.99;100.00;97955.16;5053949;28;20712;-59
2022/09/02 07:47:21;;;;;;;20.42;11.25;;;;;;;25.13;100.00;97946.97;5054226;28;20198;-59
2022/09/02 07:49:47;;;;;;;15.45;11.27;;;;;;;25.35;100.00;97955.50;5053879;28;20680;-59
2022/09/02 07:52:12;;;;;;;14.35;10.77;;;;;;;25.50;100.00;97954.25;5054313;28;20260;-59
2022/09/02 07:54:38;;;;;;;15.57;11.57;;;;;;;25.54;100.00;97939.53;5053958;28;20539;-59
2022/09/02 07:57:04;;;;;;;15.77;11.65;;;;;;;25.70;100.00;97949.66;5054045;28;20173;-59
2022/09/02 07:59:29;;;;;;;12.55;10.90;;;;;;;25.80;100.00;97949.19;5053637;28;20699;-59
2022/09/02 08:01:55;;;;;;;14.10;11.00;;;;;;;25.82;100.00;97931.22;5053884;28;20205;-58
2022/09/02 08:04:23;;;;;;;15.05;10.00;;;;;;;25.95;100.00;97941.81;5053564;28;20276;-60
2022/09/02 08:06:51;;;;;;;17.02;9.95;;;;;;;25.97;100.00;97940.56;5053734;28;20188;-57
2022/09/02 08:09:16;;;;;;;17.88;10.77;;;;;;;25.98;100.00;97942.19;5053489;28;20185;-58
2022/09/02 08:11:45;;;;;;;19.02;10.30;;;;;;;26.07;100.00;97946.22;5054014;28;20173;-59
2022/09/02 08:14:16;;;;;;;10.20;9.23;;;;;;;26.09;100.00;97946.00;5053644;28;20177;-58
2022/09/02 08:16:43;;;;;;;14.07;9.70;;;;;;;26.08;100.00;97942.56;5053332;28;20542;-59
2022/09/02 08:19:09;;;;;;;15.00;9.93;;;;;;;26.15;100.00;97942.50;5053183;28;20260;-58
2022/09/02 08:21:35;;;;;;;13.57;9.70;;;;;;;26.16;100.00;97936.16;5053550;28;20619;-59
2022/09/02 08:24:01;;;;;;;12.73;9.05;;;;;;;26.11;100.00;97936.81;5053099;28;20205;-58
2022/09/02 08:26:27;;;;;;;16.55;8.70;;;;;;;26.08;100.00;97944.38;5053139;28;20181;-60
2022/09/02 08:28:53;;;;;;;12.07;8.93;;;;;;;26.09;100.00;97938.88;5053102;28;20177;-59
2022/09/02 08:31:19;;;;;;;13.30;9.35;;;;;;;26.06;100.00;97930.53;5053030;28;20650;-59
2022/09/02 08:33:44;;;;;;;16.80;9.02;;;;;;;26.07;100.00;97925.00;5053290;28;20255;-58
2022/09/02 08:36:13;;;;;;;11.63;8.10;;;;;;;26.11;100.00;97922.72;5053290;28;20634;-59
2022/09/02 08:38:38;;;;;;;13.90;7.88;;;;;;;26.13;100.00;97918.81;5052869;28;20220;-59
2022/09/02 08:41:16;;;;;;;9.88;8.07;;;;;;;26.08;100.00;97921.34;5052926;28;20185;-58
2022/09/02 08:43:44;;;;;;;14.65;8.85;;;;;;;26.04;99.80;97912.16;5052702;28;20200;-58
2022/09/02 08:46:14;;;;;;;12.15;8.13;;;;;;;26.03;99.61;97910.56;5053137;28;20185;-58
2022/09/02 08:48:45;;;;;;;11.32;9.00;;;;;;;26.12;100.00;97919.84;5053060;28;20239;-59
2022/09/02 08:51:30;;;;;;;20.05;7.90;;;;;;;26.14;100.00;97915.16;5053010;28;20172;-58
2022/09/02 08:54:04;;;;;;;15.60;8.45;;;;;;;26.09;99.99;97912.34;5052996;28;20189;-58
2022/09/02 08:56:31;;;;;;;13.48;8.32;;;;;;;25.96;100.00;97904.47;5052879;28;20588;-59
2022/09/02 08:58:56;;;;;;;11.63;8.68;;;;;;;25.95;100.00;97900.19;5052566;28;20272;-59
2022/09/02 09:01:29;;;;;;;12.50;8.02;;;;;;;26.00;99.97;97908.31;5052559;28;20204;-59
2022/09/02 09:04:12;;;;;;;9.27;7.25;;;;;;;26.03;97.31;97923.81;5052697;28;20651;-59
2022/09/02 09:07:01;;;;;;;9.43;6.63;;;;;;;26.16;91.92;97915.75;5052378;28;20161;-59
2022/09/02 09:09:59;;;;;;;9.57;7.30;;;;;;;26.14;91.62;97909.88;5052606;28;20173;-59
2022/09/02 09:12:46;;;;;;;12.57;6.60;;;;;;;26.12;84.31;97884.59;5052604;28;20696;-60
2022/09/02 09:15:34;;;;;;;12.65;6.68;;;;;;;26.16;85.79;97883.94;5052948;28;20188;-59
2022/09/02 09:18:04;;;;;;;12.55;7.60;;;;;;;26.15;88.88;97890.28;5053062;28;20169;-59
2022/09/02 09:20:37;;;;;;;10.63;7.03;;;;;;;26.21;91.93;97889.41;5052197;28;20173;-59
2022/09/02 09:23:13;;;;;;;11.38;7.60;;;;;;;26.29;93.33;97893.63;5052850;28;20165;-59
2022/09/02 09:25:38;;;;;;;11.40;7.75;;;;;;;26.36;94.94;97897.84;5052496;28;20167;-59
2022/09/02 09:28:04;;;;;;;13.15;6.60;;;;;;;26.45;93.05;97896.56;5052426;28;20173;-60
2022/09/02 09:30:29;;;;;;;8.80;5.70;;;;;;;26.47;87.11;97889.19;5052107;28;20169;-60
2022/09/02 09:32:58;;;;;;;6.88;5.47;;;;;;;26.55;87.69;97888.94;5052100;28;20219;-58
2022/09/02 09:35:26;;;;;;;6.85;5.32;;;;;;;26.71;81.79;97891.03;5052320;28;20200;-59
2022/09/02 09:37:53;;;;;;;9.10;5.00;;;;;;;26.78;84.63;97901.59;5051848;28;20264;-59
2022/09/02 09:40:21;;;;;;;7.78;6.30;;;;;;;26.69;86.64;97914.34;5034124;28;20711;-59
2022/09/02 09:43:11;;;;;;;8.43;5.38;;;;;;;26.47;86.61;97920.22;5052071;28;20255;-59
2022/09/02 09:45:44;;;;;;;11.20;5.30;;;;;;;26.24;87.03;97920.78;5040893;28;20216;-60
2022/09/02 09:48:15;;;;;;;8.35;5.65;;;;;;;25.89;86.78;97922.22;5052215;28;20161;-59
2022/09/02 09:51:04;;;;;;;7.53;5.78;;;;;;;25.50;86.83;97942.81;5034023;28;20192;-58
2022/09/02 09:53:32;;;;;;;6.70;5.95;;;;;;;25.17;87.34;97953.47;5041476;28;20189;-59
2022/09/02 09:56:04;;;;;;;7.78;6.10;;;;;;;25.01;89.33;97947.81;5051790;28;20191;-58
2022/09/02 09:58:38;;;;;;;7.00;6.07;;;;;;;24.99;91.33;97948.03;5054166;28;20175;-59
2022/09/02 10:01:11;;;;;;;8.35;6.30;;;;;;;24.97;93.81;97941.31;5055947;28;20182;-60
2022/09/02 10:03:41;;;;;;;6.93;4.95;;;;;;;25.09;91.60;97943.09;5056063;28;20200;-60
2022/09/02 10:06:21;;;;;;;9.93;4.72;;;;;;;25.19;87.58;97961.22;5056196;28;20588;-60
2022/09/02 10:08:56;;;;;;;4.60;4.20;;;;;;;25.05;85.20;97965.72;5037940;28;20554;-60
2022/09/02 10:11:23;;;;;;;6.53;3.90;;;;;;;24.95;86.52;97969.84;5055728;28;20247;-61
2022/09/02 10:13:48;;;;;;;4.90;4.50;;;;;;;24.82;88.52;97980.41;5055683;28;20236;-60
2022/09/02 10:16:51;;;;;;;5.30;4.03;;;;;;;24.78;88.34;97982.66;5055696;28;20307;-60
2022/09/02 10:19:29;;;;;;;4.97;4.57;;;;;;;24.70;87.81;97985.53;5055846;28;20172;-60
2022/09/02 10:22:18;;;;;;;4.32;3.72;;;;;;;24.23;92.32;97984.03;5055831;28;20265;-59
2022/09/02 10:25:03;;;;;;;4.60;3.47;;;;;;;23.62;89.32;97966.53;5056239;28;20228;-59
2022/09/02 10:27:47;;;;;;;3.88;3.47;;;;;;;23.36;91.23;97961.94;5055737;28;20169;-57
2022/09/02 10:30:24;;;;;;;4.05;3.03;;;;;;;23.21;93.39;97968.34;5055717;28;20162;-58
2022/09/02 10:33:10;;;;;;;4.20;3.38;;;;;;;23.04;95.23;97970.47;5055625;28;20243;-59
2022/09/02 10:35:38;;;;;;;6.82;3.15;;;;;;;23.05;95.48;97969.47;5055599;28;20204;-59
2022/09/02 10:38:10;;;;;;;4.32;3.40;;;;;;;22.94;91.79;97966.53;5055146;28;20196;-59
2022/09/02 10:40:44;;;;;;;3.63;3.33;;;;;;;22.90;91.73;97974.00;5055217;28;20189;-59
2022/09/02 10:43:24;;;;;;;5.57;3.58;;;;;;;22.93;93.81;97978.09;5055135;28;20191;-59
2022/09/02 10:45:56;;;;;;;4.85;3.60;;;;;;;22.97;93.76;97974.06;5055102;28;20169;-59
2022/09/02 10:48:44;;;;;;;5.53;3.00;;;;;;;23.13;90.11;97985.13;5055435;28;20200;-59
2022/09/02 10:51:22;;;;;;;3.47;3.20;;;;;;;23.20;91.48;97972.00;5055033;28;20180;-59
2022/09/02 10:53:50;;;;;;;5.18;3.50;;;;;;;23.24;92.38;97963.50;5055258;28;20244;-59
2022/09/02 10:56:20;;;;;;;5.85;3.70;;;;;;;23.28;93.96;97956.00;5055164;28;20188;-59
2022/09/02 10:58:53;;;;;;;3.55;3.25;;;;;;;23.40;94.19;97957.06;5055107;28;20211;-59
2022/09/02 11:01:24;;;;;;;6.97;3.13;;;;;;;23.36;93.67;97959.28;5054784;28;20181;-61
2022/09/02 11:04:03;;;;;;;3.22;2.92;;;;;;;23.57;90.62;97976.88;5055033;28;20189;-59
2022/09/02 11:06:31;;;;;;;3.97;3.15;;;;;;;23.74;91.37;97995.63;5055576;28;20207;-59
2022/09/02 11:08:59;;;;;;;3.47;3.17;;;;;;;23.83;91.63;97991.81;5054317;28;20203;-59
2022/09/02 11:11:39;;;;;;;3.03;2.72;;;;;;;23.84;88.37;97987.31;5054608;28;20724;-59
2022/09/02 11:14:18;;;;;;;3.50;2.88;;;;;;;24.06;86.23;97999.44;5054948;28;20633;-58
2022/09/02 11:16:51;;;;;;;4.28;2.85;;;;;;;24.01;86.06;97991.28;5054497;28;20619;-59
2022/09/02 11:19:30;;;;;;;3.40;3.10;;;;;;;24.07;84.10;97987.03;5054463;28;20166;-59
2022/09/02 11:22:13;;;;;;;3.45;3.15;;;;;;;24.14;84.49;97986.03;5054775;28;20180;-59
2022/09/02 11:24:50;;;;;;;5.05;3.30;;;;;;;24.03;86.42;97978.69;5054635;28;20189;-59
2022/09/02 11:28:03;;;;;;;3.95;3.65;;;;;;;23.92;86.62;97973.16;5054323;28;20668;-59